Time;durP1;ratioP1;P1;durP2;ratioP2;P2;SDS_P1;SDS_P2;PMS_P1;PMS_P2;Temp;Humidity;BMP_temperature;BMP_pressure;BME280_temperature;BME280_humidity;BME280_pressure;Samples;Min_cycle;Max_cycle;Signal;HPM_P1;HPM_P2
2022/03/13 00:03:21;;;;;;;19.97;16.53;;;6.70;71.40;;;;;;10476154;28;20303;-84
2022/03/13 00:08:27;;;;;;;18.30;15.73;;;6.70;70.50;;;;;;10493193;28;20239;-84
2022/03/13 00:13:31;;;;;;;18.43;15.87;;;6.70;70.30;;;;;;10478018;28;20220;-84
2022/03/13 00:18:35;;;;;;;18.13;15.07;;;6.70;68.10;;;;;;10492900;28;20218;-84
2022/03/13 00:23:39;;;;;;;19.23;15.77;;;6.60;70.40;;;;;;10484484;28;20212;-84
2022/03/13 00:28:42;;;;;;;17.67;15.17;;;6.50;70.20;;;;;;10494370;28;20201;-84
2022/03/13 00:33:44;;;;;;;19.13;15.17;;;6.50;68.70;;;;;;10510908;28;20235;-84
2022/03/13 00:38:47;;;;;;;16.57;14.73;;;6.50;69.60;;;;;;10495661;28;20196;-84
2022/03/13 00:43:50;;;;;;;18.20;14.20;;;6.50;69.40;;;;;;10478823;28;20598;-84
2022/03/13 00:48:52;;;;;;;18.60;14.70;;;6.40;68.70;;;;;;10477330;28;20590;-84
2022/03/13 00:53:56;;;;;;;18.00;15.43;;;6.30;67.90;;;;;;10471212;28;20596;-84
2022/03/13 00:58:58;;;;;;;17.40;14.70;;;6.30;68.30;;;;;;10473163;28;20216;-84
2022/03/13 01:04:00;;;;;;;16.27;14.10;;;6.20;67.00;;;;;;10509339;28;20223;-84
2022/03/13 01:09:04;;;;;;;15.47;13.03;;;6.10;68.80;;;;;;10491624;28;20706;-84
2022/03/13 01:14:06;;;;;;;16.03;13.20;;;6.10;69.10;;;;;;10470930;28;20577;-84
2022/03/13 01:19:09;;;;;;;18.60;14.90;;;6.10;69.50;;;;;;10494452;28;20240;-85
2022/03/13 01:24:25;;;;;;;15.67;13.90;;;6.10;68.50;;;;;;10481415;28;20258;-84
2022/03/13 01:29:27;;;;;;;16.30;14.57;;;6.10;68.90;;;;;;10479108;28;20227;-84
2022/03/13 01:34:41;;;;;;;15.53;13.13;;;6.10;68.90;;;;;;10480795;28;20580;-84
2022/03/13 01:39:45;;;;;;;15.07;13.10;;;6.10;68.70;;;;;;10502894;28;20219;-83
2022/03/13 01:44:47;;;;;;;15.50;12.83;;;6.10;69.10;;;;;;10469536;28;20296;-85
2022/03/13 01:49:51;;;;;;;14.70;12.13;;;6.10;68.10;;;;;;10485020;28;20266;-83
2022/03/13 01:54:56;;;;;;;15.57;11.43;;;6.10;67.90;;;;;;10478220;28;20227;-83
2022/03/13 02:00:00;;;;;;;12.97;11.00;;;6.10;66.60;;;;;;10482241;28;20228;-83
2022/03/13 02:05:03;;;;;;;15.53;12.63;;;6.00;68.10;;;;;;10465765;28;20197;-83
2022/03/13 02:10:07;;;;;;;13.60;11.47;;;6.10;67.20;;;;;;10480018;28;20693;-83
2022/03/13 02:15:10;;;;;;;14.77;12.03;;;6.00;66.00;;;;;;10464138;28;20718;-82
2022/03/13 02:20:15;;;;;;;14.83;11.70;;;6.00;68.10;;;;;;10485260;28;20228;-83
2022/03/13 02:25:23;;;;;;;13.90;11.90;;;5.90;66.40;;;;;;10496332;28;20201;-82
2022/03/13 02:30:27;;;;;;;13.10;11.70;;;5.90;67.10;;;;;;10468549;28;20236;-84
2022/03/13 02:35:30;;;;;;;13.73;12.17;;;5.90;66.60;;;;;;10485772;28;20311;-83
2022/03/13 02:40:35;;;;;;;14.07;12.30;;;5.80;66.60;;;;;;10507485;28;20216;-83
2022/03/13 02:45:38;;;;;;;15.03;12.80;;;5.70;66.80;;;;;;10460085;28;20288;-80
2022/03/13 02:50:41;;;;;;;15.93;11.67;;;5.70;65.50;;;;;;10468018;28;20232;-83
2022/03/13 02:55:45;;;;;;;17.20;12.67;;;5.70;64.70;;;;;;10502115;28;20242;-83
2022/03/13 03:00:49;;;;;;;15.10;12.23;;;5.60;66.70;;;;;;10501061;28;20587;-83
2022/03/13 03:05:52;;;;;;;15.43;13.50;;;5.50;67.70;;;;;;10484077;28;20230;-83
2022/03/13 03:10:56;;;;;;;13.80;12.30;;;5.50;68.00;;;;;;10482936;28;20228;-83
2022/03/13 03:15:58;;;;;;;14.87;13.33;;;5.50;66.70;;;;;;10460010;28;20220;-84
2022/03/13 03:21:00;;;;;;;16.50;13.27;;;5.50;66.90;;;;;;10484403;28;20720;-83
2022/03/13 03:26:05;;;;;;;14.50;12.93;;;5.50;68.30;;;;;;10484933;28;20196;-84
2022/03/13 03:31:08;;;;;;;16.37;14.60;;;5.50;67.60;;;;;;10470166;28;20224;-83
2022/03/13 03:36:14;;;;;;;17.13;14.47;;;5.40;67.10;;;;;;10488522;28;20216;-83
2022/03/13 03:41:17;;;;;;;18.13;14.87;;;5.40;68.60;;;;;;10471017;28;20223;-84
2022/03/13 03:46:23;;;;;;;19.07;15.50;;;5.30;67.60;;;;;;10480139;28;20201;-84
2022/03/13 03:51:25;;;;;;;18.50;15.27;;;5.40;67.50;;;;;;10474951;28;20314;-83
2022/03/13 03:56:29;;;;;;;17.73;15.83;;;5.20;68.60;;;;;;10483342;28;20220;-83
2022/03/13 04:01:37;;;;;;;19.37;16.93;;;5.20;68.00;;;;;;10491179;28;20216;-83
2022/03/13 04:06:40;;;;;;;23.47;16.80;;;5.10;68.70;;;;;;10466258;28;20212;-83
2022/03/13 04:11:44;;;;;;;16.80;15.10;;;5.10;69.10;;;;;;10484495;28;20224;-83
2022/03/13 04:16:47;;;;;;;21.70;17.50;;;5.20;69.50;;;;;;10510342;28;20244;-83
2022/03/13 04:21:49;;;;;;;19.80;16.57;;;5.10;69.70;;;;;;10495264;28;20221;-82
2022/03/13 04:26:52;;;;;;;17.77;15.87;;;5.10;71.00;;;;;;10497080;28;20194;-84
2022/03/13 04:31:55;;;;;;;19.90;16.80;;;5.10;71.30;;;;;;10480427;28;20250;-84
2022/03/13 04:36:59;;;;;;;21.13;17.40;;;5.20;70.90;;;;;;10483366;28;20221;-84
2022/03/13 04:42:05;;;;;;;21.70;17.90;;;5.20;70.10;;;;;;10476062;28;20217;-84
2022/03/13 04:47:07;;;;;;;20.93;17.40;;;5.10;71.10;;;;;;10479526;28;20200;-83
2022/03/13 04:52:09;;;;;;;19.23;16.80;;;5.00;70.40;;;;;;10476147;28;20282;-83
2022/03/13 04:57:13;;;;;;;21.40;17.10;;;5.00;71.20;;;;;;10498013;28;20216;-84
2022/03/13 05:02:15;;;;;;;20.40;17.37;;;4.90;72.40;;;;;;10472344;28;20598;-84
2022/03/13 05:07:21;;;;;;;22.67;18.57;;;4.90;71.40;;;;;;10497917;28;20199;-84
2022/03/13 05:12:29;;;;;;;22.20;17.17;;;4.90;72.30;;;;;;10495612;28;20688;-84
2022/03/13 05:17:31;;;;;;;22.20;16.73;;;4.90;73.30;;;;;;10505542;28;20299;-84
2022/03/13 05:22:33;;;;;;;18.37;16.47;;;4.90;72.60;;;;;;10498665;28;20235;-84
2022/03/13 05:27:38;;;;;;;18.07;16.13;;;4.90;72.30;;;;;;10482973;28;20640;-84
2022/03/13 05:32:43;;;;;;;18.37;15.90;;;4.80;74.20;;;;;;10495560;28;20239;-85
2022/03/13 05:37:45;;;;;;;21.30;17.63;;;4.80;74.20;;;;;;10500138;28;20307;-84
2022/03/13 05:42:51;;;;;;;19.63;17.47;;;4.90;74.40;;;;;;10493922;28;20212;-84
2022/03/13 05:47:56;;;;;;;22.90;18.70;;;4.90;75.40;;;;;;10499570;28;20545;-84
2022/03/13 05:52:59;;;;;;;22.87;18.83;;;4.80;75.30;;;;;;10484993;28;20224;-84
2022/03/13 05:58:03;;;;;;;24.53;19.70;;;4.90;74.10;;;;;;10484041;28;20302;-83
2022/03/13 06:03:06;;;;;;;22.50;18.33;;;4.90;75.20;;;;;;10497433;28;20228;-83
2022/03/13 06:08:08;;;;;;;20.17;17.40;;;4.90;76.10;;;;;;10474640;28;20246;-83
2022/03/13 06:13:12;;;;;;;20.17;17.80;;;4.90;76.10;;;;;;10470120;28;20599;-83
2022/03/13 06:18:14;;;;;;;23.37;19.47;;;5.00;76.20;;;;;;10511193;28;20235;-84
2022/03/13 06:23:16;;;;;;;20.20;17.57;;;5.00;76.10;;;;;;10475519;28;20221;-84
2022/03/13 06:28:21;;;;;;;20.83;18.13;;;5.10;76.20;;;;;;10494340;28;20192;-83
2022/03/13 06:33:26;;;;;;;19.70;17.60;;;5.10;75.50;;;;;;10495619;28;20713;-83
2022/03/13 06:38:28;;;;;;;22.07;18.07;;;5.10;76.30;;;;;;10497188;28;20196;-83
2022/03/13 06:43:34;;;;;;;18.87;16.87;;;5.20;75.90;;;;;;10469242;28;20251;-84
2022/03/13 06:48:36;;;;;;;20.03;17.20;;;5.20;75.60;;;;;;10509657;28;20283;-83
2022/03/13 06:53:41;;;;;;;20.83;17.50;;;5.20;76.80;;;;;;10494383;28;20201;-84
2022/03/13 06:58:45;;;;;;;22.23;17.97;;;5.20;77.50;;;;;;10478587;28;20204;-84
2022/03/13 07:03:47;;;;;;;20.80;17.80;;;5.40;77.70;;;;;;10477065;28;20675;-83
2022/03/13 07:08:49;;;;;;;22.40;18.90;;;5.50;77.50;;;;;;10511814;28;20207;-84
2022/03/13 07:13:53;;;;;;;24.80;21.27;;;5.60;78.10;;;;;;10485332;28;20204;-83
2022/03/13 07:18:55;;;;;;;25.57;22.03;;;5.80;78.50;;;;;;10481585;28;20211;-84
2022/03/13 07:23:57;;;;;;;33.00;22.27;;;5.90;76.30;;;;;;10487477;28;20228;-84
2022/03/13 07:29:01;;;;;;;28.50;22.13;;;6.00;76.90;;;;;;10501460;28;20299;-84
2022/03/13 07:34:03;;;;;;;26.47;21.20;;;6.10;74.90;;;;;;10520024;28;20567;-83
2022/03/13 07:39:05;;;;;;;28.53;22.33;;;6.30;72.40;;;;;;10485367;28;20225;-83
2022/03/13 07:44:09;;;;;;;25.10;20.40;;;6.40;72.60;;;;;;10502288;28;20223;-84
2022/03/13 07:49:12;;;;;;;28.17;21.80;;;6.60;75.70;;;;;;10519122;28;20227;-84
2022/03/13 07:54:20;;;;;;;28.20;23.80;;;6.70;76.00;;;;;;10484990;28;20212;-83
2022/03/13 07:59:24;;;;;;;25.50;22.40;;;7.00;75.90;;;;;;10478868;28;20228;-83
2022/03/13 08:04:26;;;;;;;25.43;21.90;;;7.20;76.20;;;;;;10501195;28;20204;-84
2022/03/13 08:09:28;;;;;;;25.40;22.13;;;7.50;75.70;;;;;;10488952;28;20601;-83
2022/03/13 08:14:32;;;;;;;26.53;21.53;;;7.80;75.60;;;;;;10466176;28;20307;-83
2022/03/13 08:19:34;;;;;;;26.40;20.47;;;7.90;73.20;;;;;;10505526;28;20344;-83
2022/03/13 08:24:36;;;;;;;24.27;20.60;;;8.20;75.10;;;;;;10472233;28;20197;-83
2022/03/13 08:29:40;;;;;;;24.70;21.37;;;8.50;74.70;;;;;;10510912;28;20216;-84
2022/03/13 08:34:42;;;;;;;22.43;20.03;;;8.70;73.40;;;;;;10479456;28;20231;-83
2022/03/13 08:39:45;;;;;;;23.83;19.00;;;8.90;71.10;;;;;;10505165;28;20217;-83
2022/03/13 08:44:49;;;;;;;22.30;19.43;;;9.10;70.20;;;;;;10489015;28;20656;-84
2022/03/13 08:49:51;;;;;;;24.40;19.70;;;9.20;68.50;;;;;;10485717;28;20274;-82
2022/03/13 08:54:53;;;;;;;23.60;17.47;;;9.30;69.00;;;;;;10492438;28;20681;-83
2022/03/13 08:59:57;;;;;;;20.00;17.90;;;9.40;69.40;;;;;;10489138;28;20223;-84
2022/03/13 09:04:59;;;;;;;24.77;19.50;;;9.60;72.50;;;;;;10473209;28;20287;-84
2022/03/13 09:10:02;;;;;;;23.00;17.93;;;9.70;71.80;;;;;;10474839;28;20224;-84
2022/03/13 09:15:07;;;;;;;20.17;17.87;;;9.90;71.20;;;;;;10471891;28;20215;-82
2022/03/13 09:20:11;;;;;;;20.27;17.23;;;10.10;69.90;;;;;;10479046;28;20300;-82
2022/03/13 09:25:14;;;;;;;19.40;16.77;;;10.30;69.00;;;;;;10509365;28;20188;-82
2022/03/13 09:30:17;;;;;;;21.13;18.90;;;10.60;66.30;;;;;;10481325;28;20215;-83
2022/03/13 09:35:19;;;;;;;20.80;18.37;;;10.70;65.50;;;;;;10488355;28;20220;-83
2022/03/13 09:40:21;;;;;;;20.37;15.53;;;10.90;66.30;;;;;;10508043;28;20216;-84
2022/03/13 09:45:25;;;;;;;20.90;17.97;;;11.20;65.80;;;;;;10520470;28;20252;-84
2022/03/13 09:50:28;;;;;;;20.70;17.27;;;11.50;64.90;;;;;;10494395;28;20288;-84
2022/03/13 09:55:30;;;;;;;17.53;15.63;;;11.70;63.00;;;;;;10494724;28;20314;-82
2022/03/13 10:00:34;;;;;;;18.03;16.13;;;12.00;63.40;;;;;;10474162;28;20216;-85
2022/03/13 10:05:44;;;;;;;20.00;17.77;;;12.20;61.90;;;;;;10499142;28;20656;-83
2022/03/13 10:10:47;;;;;;;17.43;15.60;;;12.30;61.40;;;;;;10466315;28;20239;-84
2022/03/13 10:15:50;;;;;;;17.60;15.80;;;12.30;61.00;;;;;;10478864;28;20228;-85
2022/03/13 10:20:53;;;;;;;20.77;17.80;;;12.30;61.20;;;;;;10468302;28;20278;-84
2022/03/13 10:25:57;;;;;;;21.97;19.60;;;12.30;60.90;;;;;;10486393;28;20199;-84
2022/03/13 10:31:16;;;;;;;20.43;18.23;;;12.20;62.30;;;;;;10488197;28;20221;-85
2022/03/13 10:36:21;;;;;;;19.97;17.77;;;12.00;62.50;;;;;;10481238;28;20301;-84
2022/03/13 10:41:43;;;;;;;19.37;17.30;;;11.90;63.40;;;;;;10462209;28;20228;-85
2022/03/13 10:46:52;;;;;;;21.90;18.20;;;11.90;64.60;;;;;;10454605;28;20208;-84
2022/03/13 10:51:56;;;;;;;21.50;19.27;;;11.80;64.20;;;;;;10451301;28;20235;-84
2022/03/13 10:57:06;;;;;;;22.87;18.57;;;11.80;61.80;;;;;;10443593;28;20596;-85
2022/03/13 11:02:15;;;;;;;26.27;21.40;;;11.80;65.40;;;;;;10453843;28;20799;-84
2022/03/13 11:07:18;;;;;;;23.13;20.40;;;11.80;60.40;;;;;;10476636;28;20715;-86
2022/03/13 11:12:21;;;;;;;23.40;19.30;;;11.90;61.40;;;;;;10464440;28;20212;-85
2022/03/13 11:17:28;;;;;;;24.97;19.90;;;11.90;63.60;;;;;;10468574;28;20261;-87
2022/03/13 11:22:31;;;;;;;24.93;19.47;;;11.90;59.90;;;;;;10459954;28;20219;-86
2022/03/13 11:27:36;;;;;;;27.90;21.93;;;12.00;62.80;;;;;;10462607;28;20237;-86
2022/03/13 11:32:45;;;;;;;25.00;20.93;;;12.00;59.70;;;;;;10468776;28;20224;-85
2022/03/13 11:37:49;;;;;;;23.20;19.77;;;12.20;60.10;;;;;;10445678;28;20281;-85
2022/03/13 11:42:54;;;;;;;24.97;20.67;;;12.20;63.10;;;;;;10468712;28;20243;-85
2022/03/13 11:47:58;;;;;;;28.63;23.53;;;12.20;64.10;;;;;;10453741;28;20560;-86
2022/03/13 11:53:16;;;;;;;26.37;21.17;;;12.20;62.70;;;;;;10455634;28;20237;-86
2022/03/13 11:58:46;;;;;;;27.37;20.03;;;12.30;60.20;;;;;;10466005;28;20219;-86
2022/03/13 12:04:27;;;;;;;26.60;19.47;;;12.30;61.70;;;;;;10455346;28;20636;-86
2022/03/13 12:09:42;;;;;;;21.90;18.83;;;12.40;61.10;;;;;;10471201;28;20216;-86
2022/03/13 12:14:53;;;;;;;24.13;18.70;;;12.40;62.80;;;;;;10484212;28;20192;-86
2022/03/13 12:19:58;;;;;;;28.03;21.17;;;12.40;62.30;;;;;;10482134;28;20587;-86
2022/03/13 12:25:03;;;;;;;25.00;20.00;;;12.50;59.40;;;;;;10474352;28;20791;-86
2022/03/13 12:30:06;;;;;;;25.73;20.53;;;12.50;59.70;;;;;;10490517;28;20270;-85
2022/03/13 12:35:10;;;;;;;24.43;20.23;;;12.50;59.10;;;;;;10467741;28;20217;-86
2022/03/13 12:40:13;;;;;;;27.30;21.57;;;12.70;60.40;;;;;;10494719;28;20223;-86
2022/03/13 12:45:16;;;;;;;29.47;18.63;;;12.70;60.30;;;;;;10515779;28;20203;-86
2022/03/13 12:50:23;;;;;;;25.30;20.23;;;12.70;60.50;;;;;;10470284;28;20229;-86
2022/03/13 12:55:28;;;;;;;27.33;19.67;;;12.70;60.40;;;;;;10482722;28;20777;-86
2022/03/13 13:00:35;;;;;;;23.73;19.80;;;12.80;59.20;;;;;;10482501;28;20680;-86
2022/03/13 13:05:39;;;;;;;24.37;20.23;;;12.90;59.20;;;;;;10473152;28;20503;-86
2022/03/13 13:10:41;;;;;;;24.90;19.83;;;12.90;60.60;;;;;;10470948;28;20219;-85
2022/03/13 13:15:44;;;;;;;21.77;18.27;;;13.00;60.60;;;;;;10484077;28;20677;-85
2022/03/13 13:20:50;;;;;;;21.10;17.70;;;13.00;57.40;;;;;;10460697;28;20700;-86
2022/03/13 13:25:52;;;;;;;22.73;18.77;;;13.10;57.80;;;;;;10477180;28;20199;-85
2022/03/13 13:30:55;;;;;;;25.97;21.47;;;13.10;61.60;;;;;;10460085;28;20276;-86
2022/03/13 13:43:10;;;;;;;25.17;19.50;;;13.20;57.80;;;;;;10480720;22;20224;-86
2022/03/13 13:48:29;;;;;;;21.30;17.70;;;13.30;59.10;;;;;;10481783;28;20200;-85
2022/03/13 14:06:18;;;;;;;22.10;17.43;;;13.50;55.70;;;;;;10409675;28;20204;-85
2022/03/13 14:11:21;;;;;;;21.97;17.90;;;13.60;55.40;;;;;;10442210;28;20221;-86
2022/03/13 14:16:23;;;;;;;19.70;17.30;;;13.80;57.90;;;;;;10449041;28;20253;-86
2022/03/13 14:21:27;;;;;;;21.53;16.40;;;13.70;58.40;;;;;;10438339;28;20213;-86
2022/03/13 14:26:29;;;;;;;22.17;18.50;;;13.70;57.80;;;;;;10461517;28;20213;-85
2022/03/13 14:31:31;;;;;;;22.07;17.87;;;13.70;56.50;;;;;;10457614;28;20263;-86
2022/03/13 14:36:35;;;;;;;20.33;16.90;;;13.80;57.10;;;;;;10438374;28;20267;-86
2022/03/13 14:41:39;;;;;;;19.83;17.50;;;13.80;55.10;;;;;;10454958;28;20221;-85
2022/03/13 14:46:41;;;;;;;21.40;17.43;;;14.00;56.00;;;;;;10436172;28;20653;-86
2022/03/13 14:51:45;;;;;;;17.87;16.00;;;13.90;54.80;;;;;;10459118;28;20306;-86
2022/03/13 14:56:47;;;;;;;16.53;14.70;;;14.00;57.30;;;;;;10456211;28;20192;-86
2022/03/13 15:01:50;;;;;;;19.70;16.80;;;13.90;57.90;;;;;;10455910;28;20221;-86
2022/03/13 15:06:54;;;;;;;19.03;15.93;;;13.90;58.00;;;;;;10431671;28;20221;-85
2022/03/13 15:11:56;;;;;;;17.97;14.27;;;13.80;54.60;;;;;;10452990;28;20233;-85
2022/03/13 15:17:00;;;;;;;21.13;15.87;;;13.90;57.10;;;;;;10457326;28;20197;-85
2022/03/13 15:22:04;;;;;;;16.80;14.00;;;13.80;55.80;;;;;;10457426;28;20213;-85
2022/03/13 15:27:06;;;;;;;18.10;15.90;;;13.90;56.20;;;;;;10426358;28;20317;-86
2022/03/13 15:32:09;;;;;;;17.60;13.27;;;14.00;54.90;;;;;;10458368;28;20217;-86
2022/03/13 15:37:13;;;;;;;18.50;15.23;;;14.00;58.50;;;;;;10457539;28;20198;-85
2022/03/13 15:42:16;;;;;;;18.40;15.30;;;13.90;55.70;;;;;;10446374;28;20774;-85
2022/03/13 15:47:18;;;;;;;17.97;14.73;;;13.80;58.50;;;;;;10460175;28;20274;-85
2022/03/13 15:52:22;;;;;;;16.63;14.37;;;13.60;61.40;;;;;;10436122;28;20594;-85
2022/03/13 15:57:25;;;;;;;20.63;14.73;;;13.50;57.40;;;;;;10455730;28;20288;-85
2022/03/13 16:02:28;;;;;;;17.47;13.23;;;13.50;56.50;;;;;;10436484;28;20234;-85
2022/03/13 16:07:34;;;;;;;19.10;15.30;;;13.60;59.40;;;;;;10480688;28;20297;-84
2022/03/13 16:12:36;;;;;;;17.90;15.00;;;13.50;59.70;;;;;;10460573;28;20280;-83
2022/03/13 16:17:39;;;;;;;14.30;12.53;;;13.50;62.40;;;;;;10428350;28;20243;-84
2022/03/13 16:22:45;;;;;;;15.13;13.33;;;13.40;59.30;;;;;;10469594;28;20308;-85
2022/03/13 16:27:48;;;;;;;15.43;13.43;;;13.40;63.20;;;;;;10453791;28;20664;-84
2022/03/13 16:32:50;;;;;;;16.10;13.33;;;13.30;64.50;;;;;;10448948;28;20301;-84
2022/03/13 16:37:53;;;;;;;16.53;13.30;;;13.20;66.20;;;;;;10430933;28;20201;-86
2022/03/13 16:43:15;;;;;;;17.03;13.83;;;13.00;67.40;;;;;;10440184;28;20237;-88
2022/03/13 16:48:17;;;;;;;18.50;13.83;;;12.90;68.10;;;;;;10451878;28;20217;-84
2022/03/13 16:53:31;;;;;;;20.83;14.40;;;12.70;67.10;;;;;;10439147;28;20216;-84
2022/03/13 16:58:34;;;;;;;16.60;13.50;;;12.60;65.20;;;;;;10431553;28;20196;-83
2022/03/13 17:04:06;;;;;;;17.43;12.77;;;12.60;61.70;;;;;;10444130;28;20274;-87
2022/03/13 17:09:10;;;;;;;15.70;13.20;;;12.80;59.80;;;;;;10432116;28;20229;-84
2022/03/13 17:14:14;;;;;;;14.33;12.40;;;12.90;59.40;;;;;;10445299;28;20234;-84
2022/03/13 17:19:25;;;;;;;14.30;12.80;;;13.00;59.00;;;;;;10450603;28;20241;-85
2022/03/13 17:24:29;;;;;;;15.83;12.73;;;13.00;58.90;;;;;;10447541;28;20279;-82
2022/03/13 17:29:40;;;;;;;15.83;13.43;;;12.90;58.70;;;;;;10448121;28;20303;-84
2022/03/13 17:34:47;;;;;;;16.63;13.67;;;12.90;58.80;;;;;;10432851;28;20232;-85
2022/03/13 17:39:51;;;;;;;17.60;13.90;;;12.80;58.40;;;;;;10429727;28;20221;-85
2022/03/13 17:44:56;;;;;;;13.83;12.33;;;12.70;58.50;;;;;;10448023;28;20201;-86
2022/03/13 17:49:58;;;;;;;15.33;13.13;;;12.60;59.00;;;;;;10452874;28;20226;-85
2022/03/13 17:55:02;;;;;;;14.97;12.90;;;12.40;59.10;;;;;;10457539;28;20204;-85
2022/03/13 18:00:06;;;;;;;26.60;20.13;;;12.30;59.30;;;;;;10452885;28;20221;-86
2022/03/13 18:05:16;;;;;;;21.70;16.53;;;12.20;58.70;;;;;;10467924;28;20227;-86
2022/03/13 18:10:20;;;;;;;18.30;14.93;;;12.10;59.40;;;;;;10461817;28;20292;-86
2022/03/13 18:15:22;;;;;;;15.97;14.37;;;11.90;59.60;;;;;;10486949;28;20200;-85
2022/03/13 18:20:25;;;;;;;20.50;14.93;;;11.80;59.60;;;;;;10462369;28;20235;-86
2022/03/13 18:25:28;;;;;;;19.60;15.83;;;11.70;59.90;;;;;;10460405;28;20251;-85
2022/03/13 18:30:31;;;;;;;15.90;12.83;;;11.60;60.00;;;;;;10431363;28;20221;-86
2022/03/13 18:35:34;;;;;;;12.90;11.33;;;11.50;59.70;;;;;;10442641;28;20201;-84
2022/03/13 18:40:37;;;;;;;16.17;12.80;;;11.40;59.40;;;;;;10465817;28;20315;-85
2022/03/13 18:45:40;;;;;;;13.50;11.57;;;11.30;59.10;;;;;;10447196;28;20189;-85
2022/03/13 18:50:42;;;;;;;13.27;11.20;;;11.20;59.30;;;;;;10454141;28;20216;-85
2022/03/13 18:55:46;;;;;;;14.53;11.43;;;11.10;58.70;;;;;;10443129;28;20228;-85
2022/03/13 19:00:48;;;;;;;14.07;11.70;;;11.00;58.70;;;;;;10426529;28;20576;-85
2022/03/13 19:05:50;;;;;;;12.60;10.90;;;11.00;58.00;;;;;;10439338;28;20232;-83
2022/03/13 19:10:54;;;;;;;11.57;10.37;;;11.00;57.90;;;;;;10451068;28;20245;-84
2022/03/13 19:16:05;;;;;;;12.37;10.47;;;11.10;57.20;;;;;;10456631;28;20205;-85
2022/03/13 19:21:18;;;;;;;11.57;10.40;;;11.00;57.20;;;;;;10449771;28;20219;-83
2022/03/13 19:26:22;;;;;;;10.60;9.60;;;11.10;57.30;;;;;;10482650;28;20243;-86
2022/03/13 19:31:32;;;;;;;12.43;10.47;;;11.10;56.70;;;;;;10474159;28;20236;-85
2022/03/13 19:36:36;;;;;;;13.00;11.10;;;11.10;56.30;;;;;;10454208;28;20203;-82
2022/03/13 19:41:43;;;;;;;13.20;11.90;;;11.20;56.70;;;;;;10464401;28;20253;-84
2022/03/13 19:46:46;;;;;;;14.50;11.90;;;11.20;56.70;;;;;;10427758;28;20214;-83
2022/03/13 19:51:49;;;;;;;11.60;10.40;;;11.20;56.90;;;;;;10430264;28;20891;-83
2022/03/13 19:56:53;;;;;;;13.10;11.80;;;11.00;56.60;;;;;;10452293;28;20190;-83
2022/03/13 20:01:55;;;;;;;17.20;12.00;;;11.00;57.50;;;;;;10441795;28;20249;-83
2022/03/13 20:06:57;;;;;;;13.70;12.13;;;10.90;57.50;;;;;;10462992;28;20227;-81
2022/03/13 20:12:02;;;;;;;12.87;11.47;;;10.90;57.70;;;;;;10462444;28;20228;-82
2022/03/13 20:17:08;;;;;;;12.67;11.37;;;10.80;57.90;;;;;;10462152;28;20201;-84
2022/03/13 20:22:15;;;;;;;13.10;11.70;;;10.70;58.20;;;;;;10447963;28;20221;-85
2022/03/13 20:27:20;;;;;;;14.10;12.13;;;10.60;58.80;;;;;;10441125;28;20328;-84
2022/03/13 20:32:22;;;;;;;13.37;11.40;;;10.50;59.30;;;;;;10426413;28;20229;-82
2022/03/13 20:43:55;;;;;;;15.07;11.50;;;10.30;59.40;;;;;;10445856;28;20236;-83
2022/03/13 20:49:06;;;;;;;16.03;12.10;;;10.20;61.20;;;;;;10435802;28;20880;-84
2022/03/13 20:54:09;;;;;;;13.30;11.90;;;10.10;60.20;;;;;;10425918;28;20201;-82
2022/03/13 20:59:20;;;;;;;12.73;11.43;;;10.00;61.00;;;;;;10450004;28;20588;-86
2022/03/13 21:04:23;;;;;;;15.53;11.30;;;10.00;61.50;;;;;;10434304;28;20202;-83
2022/03/13 21:09:25;;;;;;;14.77;11.80;;;10.00;62.00;;;;;;10456481;28;20225;-83
2022/03/13 21:14:32;;;;;;;14.47;11.60;;;9.90;62.70;;;;;;10447732;28;20213;-83
2022/03/13 21:19:34;;;;;;;13.50;10.70;;;10.00;61.80;;;;;;10460250;28;20221;-82
2022/03/13 21:24:36;;;;;;;11.20;10.00;;;10.00;62.80;;;;;;10417390;28;20296;-84
2022/03/13 21:29:43;;;;;;;11.20;10.00;;;10.00;61.50;;;;;;10451286;28;20760;-82
2022/03/13 21:34:45;;;;;;;14.00;11.90;;;10.00;62.90;;;;;;10434703;28;20285;-82
2022/03/13 21:39:47;;;;;;;12.07;10.80;;;10.00;63.20;;;;;;10439431;28;20217;-84
2022/03/13 21:44:53;;;;;;;12.33;11.03;;;10.00;62.00;;;;;;10433164;28;20203;-83
2022/03/13 21:49:57;;;;;;;13.40;11.33;;;10.00;62.10;;;;;;10424562;28;20718;-84
2022/03/13 21:55:04;;;;;;;16.00;13.07;;;9.90;62.70;;;;;;10430177;28;20221;-84
2022/03/13 22:00:09;;;;;;;16.20;14.30;;;9.80;63.70;;;;;;10445195;28;20263;-83
2022/03/13 22:05:18;;;;;;;14.53;12.23;;;9.70;63.10;;;;;;10459388;28;20202;-84
2022/03/13 22:10:21;;;;;;;14.23;12.17;;;9.70;63.40;;;;;;10436319;28;20229;-85
2022/03/13 22:15:28;;;;;;;17.53;14.57;;;9.60;63.10;;;;;;10436551;28;20201;-83
2022/03/13 22:20:47;;;;;;;15.00;12.77;;;9.70;63.00;;;;;;10424859;28;20300;-84
2022/03/13 22:25:53;;;;;;;13.80;12.10;;;9.60;62.80;;;;;;10429610;28;20217;-82
2022/03/13 22:31:04;;;;;;;17.20;14.77;;;9.50;62.70;;;;;;10426633;28;20227;-84
2022/03/13 22:36:11;;;;;;;20.40;14.20;;;9.50;62.30;;;;;;10431778;28;20201;-84
2022/03/13 22:41:18;;;;;;;16.00;12.97;;;9.50;62.70;;;;;;10419598;28;20225;-83
2022/03/13 22:46:25;;;;;;;14.03;12.53;;;9.40;62.50;;;;;;10438669;28;20196;-84
2022/03/13 22:51:32;;;;;;;13.50;11.67;;;9.30;62.90;;;;;;10452020;28;20217;-83
2022/03/13 22:56:49;;;;;;;12.50;11.20;;;9.20;63.40;;;;;;10446452;28;20193;-84
2022/03/13 23:01:52;;;;;;;14.40;12.00;;;9.20;63.00;;;;;;10439982;28;20221;-85
2022/03/13 23:07:08;;;;;;;12.50;11.10;;;9.10;62.40;;;;;;10454624;28;20209;-81
2022/03/13 23:12:11;;;;;;;11.87;10.70;;;9.10;63.40;;;;;;10446634;28;20224;-83
2022/03/13 23:17:16;;;;;;;12.17;10.80;;;9.10;63.80;;;;;;10439527;28;20197;-83
2022/03/13 23:22:18;;;;;;;14.37;11.90;;;9.10;64.00;;;;;;10446497;28;20805;-83
2022/03/13 23:27:20;;;;;;;13.33;11.00;;;9.20;64.40;;;;;;10439389;28;20245;-83
2022/03/13 23:32:24;;;;;;;11.50;10.30;;;9.30;64.30;;;;;;10444990;28;20221;-83
2022/03/13 23:37:26;;;;;;;10.50;9.40;;;9.40;64.20;;;;;;10450979;28;20201;-84
2022/03/13 23:42:28;;;;;;;12.37;10.80;;;9.40;62.00;;;;;;10448304;28;20226;-84
2022/03/13 23:47:33;;;;;;;14.43;12.13;;;9.50;62.30;;;;;;10449418;28;20206;-83
2022/03/13 23:52:35;;;;;;;13.30;11.23;;;9.50;62.60;;;;;;10460240;28;20213;-84
2022/03/13 23:57:37;;;;;;;13.23;11.90;;;9.50;62.10;;;;;;10460425;28;20240;-84
